Time,TemperatureF,DewpointF,PressureIn,WindDirection,WindDirectionDegrees,WindSpeedMPH,WindSpeedGustMPH,Humidity,HourlyPrecipIn,Conditions,Clouds,dailyrainin,SolarRadiationWatts/m^2,SoftwareType,DateUTC
2013-04-03 00:13:00,55.3,21.0,29.97,East,100,0.0,3.0,26,0.00,,,0.00,0,weatherlink.com 1.10,2013-04-03 07:13:00,
2013-04-03 00:28:00,54.8,20.0,29.98,East,100,2.0,3.0,26,0.00,,,0.00,0,weatherlink.com 1.10,2013-04-03 07:28:00,
2013-04-03 00:43:00,54.9,21.0,29.98,East,100,1.0,2.0,27,0.00,,,0.00,0,weatherlink.com 1.10,2013-04-03 07:43:00,
2013-04-03 00:58:00,55.2,22.0,29.98,East,100,0.0,1.0,27,0.00,,,0.00,0,weatherlink.com 1.10,2013-04-03 07:58:00,
2013-04-03 01:13:00,55.2,22.0,29.99,East,100,0.0,1.0,27,0.00,,,0.00,0,weatherlink.com 1.10,2013-04-03 08:13:00,
2013-04-03 01:28:00,54.8,21.0,29.99,East,100,0.0,0.0,27,0.00,,,0.00,0,weatherlink.com 1.10,2013-04-03 08:28:00,
2013-04-03 01:43:00,55.0,21.0,29.99,East,100,0.0,1.0,27,0.00,,,0.00,0,weatherlink.com 1.10,2013-04-03 08:43:00,
2013-04-03 01:58:00,55.3,22.0,29.99,East,100,0.0,3.0,27,0.00,,,0.00,0,weatherlink.com 1.10,2013-04-03 08:58:00,
2013-04-03 02:13:00,56.3,22.0,29.99,East,100,0.0,0.0,26,0.00,,,0.00,0,weatherlink.com 1.10,2013-04-03 09:13:00,
2013-04-03 02:28:00,56.3,22.0,29.98,East,100,0.0,1.0,26,0.00,,,0.00,0,weatherlink.com 1.10,2013-04-03 09:28:00,
2013-04-03 02:43:00,55.1,22.0,29.98,East,100,1.0,2.0,28,0.00,,,0.00,0,weatherlink.com 1.10,2013-04-03 09:43:00,
2013-04-03 02:58:00,54.7,23.0,29.98,East,100,0.0,2.0,29,0.00,,,0.00,0,weatherlink.com 1.10,2013-04-03 09:58:00,
2013-04-03 03:13:00,53.0,27.0,29.98,East,100,0.0,0.0,36,0.00,,,0.00,0,weatherlink.com 1.10,2013-04-03 10:13:00,
2013-04-03 03:28:00,51.9,23.0,29.97,East,100,0.0,0.0,32,0.00,,,0.00,0,weatherlink.com 1.10,2013-04-03 10:28:00,
2013-04-03 03:43:00,51.9,23.0,29.98,East,100,0.0,2.0,32,0.00,,,0.00,0,weatherlink.com 1.10,2013-04-03 10:43:00,
2013-04-03 03:58:00,49.7,23.0,29.98,East,100,0.0,1.0,35,0.00,,,0.00,0,weatherlink.com 1.10,2013-04-03 10:58:00,
2013-04-03 04:14:00,49.1,23.0,29.98,East,100,2.0,2.0,36,0.00,,,0.00,0,weatherlink.com 1.10,2013-04-03 11:14:00,
2013-04-03 04:29:00,49.7,23.0,29.98,East,100,2.0,2.0,35,0.00,,,0.00,0,weatherlink.com 1.10,2013-04-03 11:29:00,
2013-04-03 04:44:00,50.6,23.0,29.98,East,100,1.0,3.0,34,0.00,,,0.00,0,weatherlink.com 1.10,2013-04-03 11:44:00,
2013-04-03 04:59:00,50.8,23.0,29.99,East,100,0.0,2.0,34,0.00,,,0.00,0,weatherlink.com 1.10,2013-04-03 11:59:00,
2013-04-03 05:14:00,49.9,23.0,29.99,East,100,0.0,1.0,35,0.00,,,0.00,0,weatherlink.com 1.10,2013-04-03 12:14:00,
2013-04-03 05:29:00,49.2,23.0,30.00,East,100,0.0,0.0,36,0.00,,,0.00,0,weatherlink.com 1.10,2013-04-03 12:29:00,
2013-04-03 05:44:00,49.1,24.0,30.00,East,100,0.0,1.0,37,0.00,,,0.00,0,weatherlink.com 1.10,2013-04-03 12:44:00,
2013-04-03 05:59:00,49.3,24.0,30.00,East,100,1.0,2.0,37,0.00,,,0.00,0,weatherlink.com 1.10,2013-04-03 12:59:00,
2013-04-03 06:14:00,49.2,23.0,30.01,East,100,0.0,1.0,36,0.00,,,0.00,9,weatherlink.com 1.10,2013-04-03 13:14:00,
2013-04-03 06:29:00,49.3,23.0,30.01,East,100,0.0,1.0,36,0.00,,,0.00,28,weatherlink.com 1.10,2013-04-03 13:29:00,
2013-04-03 06:44:00,50.1,24.0,30.02,East,100,0.0,1.0,36,0.00,,,0.00,70,weatherlink.com 1.10,2013-04-03 13:44:00,
2013-04-03 06:59:00,51.6,25.0,30.03,East,100,0.0,0.0,35,0.00,,,0.00,130,weatherlink.com 1.10,2013-04-03 13:59:00,
2013-04-03 07:14:00,54.6,25.0,30.04,East,100,0.0,2.0,32,0.00,,,0.00,195,weatherlink.com 1.10,2013-04-03 14:14:00,
2013-04-03 07:29:00,57.4,26.0,30.04,East,100,0.0,1.0,30,0.00,,,0.00,264,weatherlink.com 1.10,2013-04-03 14:29:00,
2013-04-03 07:44:00,59.6,26.0,30.05,ESE,111,0.0,2.0,28,0.00,,,0.00,323,weatherlink.com 1.10,2013-04-03 14:44:00,
2013-04-03 07:59:00,61.9,26.0,30.05,ESE,111,0.0,2.0,25,0.00,,,0.00,378,weatherlink.com 1.10,2013-04-03 14:59:00,
2013-04-03 08:14:00,64.2,24.0,30.06,ESE,111,0.0,1.0,22,0.00,,,0.00,436,weatherlink.com 1.10,2013-04-03 15:14:00,
2013-04-03 08:29:00,66.3,25.0,30.06,ESE,111,0.0,3.0,21,0.00,,,0.00,492,weatherlink.com 1.10,2013-04-03 15:29:00,
2013-04-03 08:44:00,67.6,24.0,30.06,ESE,114,0.0,4.0,19,0.00,,,0.00,545,weatherlink.com 1.10,2013-04-03 15:44:00,
2013-04-03 08:59:00,68.8,25.0,30.06,South,171,2.0,5.0,19,0.00,,,0.00,596,weatherlink.com 1.10,2013-04-03 15:59:00,
2013-04-03 09:15:00,69.6,25.0,30.06,SSW,196,2.0,5.0,19,0.00,,,0.00,643,weatherlink.com 1.10,2013-04-03 16:15:00,
2013-04-03 09:30:00,70.0,24.0,30.06,WNW,284,1.0,7.0,18,0.00,,,0.00,687,weatherlink.com 1.10,2013-04-03 16:30:00,
2013-04-03 09:45:00,71.2,25.0,30.05,WNW,290,1.0,4.0,18,0.00,,,0.00,733,weatherlink.com 1.10,2013-04-03 16:45:00,
2013-04-03 10:00:00,72.2,26.0,30.06,NW,313,0.0,5.0,18,0.00,,,0.00,765,weatherlink.com 1.10,2013-04-03 17:00:00,
2013-04-03 10:30:00,73.3,26.0,30.05,NNW,344,1.0,7.0,17,0.00,,,0.00,835,weatherlink.com 1.10,2013-04-03 17:30:00,
2013-04-03 10:45:00,74.2,27.0,30.04,North,355,5.0,6.0,17,0.00,,,0.00,860,weatherlink.com 1.10,2013-04-03 17:45:00,
2013-04-03 11:00:00,75.3,27.0,30.04,North,355,1.0,6.0,17,0.00,,,0.00,888,weatherlink.com 1.10,2013-04-03 18:00:00,
2013-04-03 11:15:00,75.9,27.0,30.04,North,355,2.0,11.0,16,0.00,,,0.00,907,weatherlink.com 1.10,2013-04-03 18:15:00,
2013-04-03 11:30:00,75.9,27.0,30.04,NNE,15,2.0,9.0,16,0.00,,,0.00,881,weatherlink.com 1.10,2013-04-03 18:30:00,
2013-04-03 11:45:00,77.0,26.0,30.04,NNE,15,0.0,7.0,15,0.00,,,0.00,933,weatherlink.com 1.10,2013-04-03 18:45:00,
2013-04-03 12:00:00,77.4,28.0,30.03,North,11,5.0,10.0,16,0.00,,,0.00,939,weatherlink.com 1.10,2013-04-03 19:00:00,
2013-04-03 12:15:00,77.9,27.0,30.02,North,5,1.0,7.0,15,0.00,,,0.00,940,weatherlink.com 1.10,2013-04-03 19:15:00,
2013-04-03 12:30:00,79.0,28.0,30.02,ENE,67,5.0,10.0,15,0.00,,,0.00,902,weatherlink.com 1.10,2013-04-03 19:30:00,
2013-04-03 12:45:00,79.2,26.0,30.01,NNE,15,7.0,9.0,14,0.00,,,0.00,939,weatherlink.com 1.10,2013-04-03 19:45:00,
2013-04-03 13:00:00,80.3,25.0,30.01,NE,34,8.0,8.0,13,0.00,,,0.00,928,weatherlink.com 1.10,2013-04-03 20:00:00,
2013-04-03 13:15:00,80.2,27.0,30.00,North,5,8.0,11.0,14,0.00,,,0.00,916,weatherlink.com 1.10,2013-04-03 20:15:00,
2013-04-03 13:30:00,80.7,27.0,30.00,North,9,2.0,8.0,14,0.00,,,0.00,895,weatherlink.com 1.10,2013-04-03 20:30:00,
2013-04-03 13:45:00,79.9,27.0,29.98,SW,232,5.0,6.0,14,0.00,,,0.00,870,weatherlink.com 1.10,2013-04-03 20:45:00,
2013-04-03 14:00:00,81.6,26.0,29.98,NNE,31,3.0,8.0,13,0.00,,,0.00,847,weatherlink.com 1.10,2013-04-03 21:00:00,
2013-04-03 14:15:00,81.3,26.0,29.98,NNW,331,3.0,8.0,13,0.00,,,0.00,817,weatherlink.com 1.10,2013-04-03 21:15:00,
2013-04-03 14:30:00,81.7,26.0,29.97,NE,50,5.0,10.0,13,0.00,,,0.00,786,weatherlink.com 1.10,2013-04-03 21:30:00,
2013-04-03 14:46:00,82.3,25.0,29.97,NE,37,1.0,13.0,12,0.00,,,0.00,752,weatherlink.com 1.10,2013-04-03 21:46:00,
2013-04-03 15:01:00,82.7,25.0,29.97,NNE,21,9.0,10.0,12,0.00,,,0.00,708,weatherlink.com 1.10,2013-04-03 22:01:00,
2013-04-03 15:16:00,82.5,23.0,29.96,NW,317,4.0,12.0,11,0.00,,,0.00,668,weatherlink.com 1.10,2013-04-03 22:16:00,
2013-04-03 15:31:00,82.5,23.0,29.96,North,5,7.0,11.0,11,0.00,,,0.00,622,weatherlink.com 1.10,2013-04-03 22:31:00,
2013-04-03 15:46:00,82.4,23.0,29.95,NW,323,2.0,12.0,11,0.00,,,0.00,575,weatherlink.com 1.10,2013-04-03 22:46:00,
2013-04-03 16:01:00,82.7,23.0,29.95,WNW,283,7.0,9.0,11,0.00,,,0.00,455,weatherlink.com 1.10,2013-04-03 23:01:00,
2013-04-03 16:31:00,82.3,25.0,29.95,NW,318,5.0,12.0,12,0.00,,,0.00,79,weatherlink.com 1.10,2013-04-03 23:31:00,
2013-04-03 17:16:00,81.1,24.0,29.96,NW,321,3.0,10.0,12,0.00,,,0.00,107,weatherlink.com 1.10,2013-04-04 00:16:00,
2013-04-03 17:31:00,80.5,23.0,29.96,NNE,30,6.0,12.0,12,0.00,,,0.00,44,weatherlink.com 1.10,2013-04-04 00:31:00,
2013-04-03 17:46:00,79.2,24.0,29.96,NNE,26,7.0,12.0,13,0.00,,,0.00,32,weatherlink.com 1.10,2013-04-04 00:46:00,
2013-04-03 18:01:00,78.6,24.0,29.96,North,9,7.0,14.0,13,0.00,,,0.00,26,weatherlink.com 1.10,2013-04-04 01:01:00,
2013-04-03 19:01:00,74.4,25.0,29.97,NE,51,5.0,10.0,16,0.00,,,0.00,0,weatherlink.com 1.10,2013-04-04 02:01:00,
2013-04-03 19:16:00,73.3,26.0,29.97,ENE,58,7.0,8.0,17,0.00,,,0.00,0,weatherlink.com 1.10,2013-04-04 02:16:00,
2013-04-03 20:31:00,68.2,27.0,30.00,SE,130,0.0,5.0,21,0.00,,,0.00,0,weatherlink.com 1.10,2013-04-04 03:31:00,
2013-04-03 20:46:00,65.9,26.0,30.01,SE,130,0.0,2.0,22,0.00,,,0.00,0,weatherlink.com 1.10,2013-04-04 03:46:00,
2013-04-03 21:01:00,64.6,26.0,30.02,SE,130,1.0,2.0,23,0.00,,,0.00,0,weatherlink.com 1.10,2013-04-04 04:01:00,
2013-04-03 21:16:00,64.0,26.0,30.02,SE,130,3.0,3.0,24,0.00,,,0.00,0,weatherlink.com 1.10,2013-04-04 04:16:00,
2013-04-03 21:31:00,63.7,25.0,30.03,SE,130,0.0,2.0,23,0.00,,,0.00,0,weatherlink.com 1.10,2013-04-04 04:31:00,
2013-04-03 21:46:00,63.0,25.0,30.03,SE,130,1.0,3.0,24,0.00,,,0.00,0,weatherlink.com 1.10,2013-04-04 04:46:00,
2013-04-03 22:16:00,62.3,26.0,30.04,SE,130,1.0,2.0,25,0.00,,,0.00,0,weatherlink.com 1.10,2013-04-04 05:16:00,
2013-04-03 22:31:00,62.0,26.0,30.04,SE,130,3.0,3.0,25,0.00,,,0.00,0,weatherlink.com 1.10,2013-04-04 05:31:00,
2013-04-03 22:46:00,61.9,26.0,30.04,SE,130,2.0,3.0,26,0.00,,,0.00,0,weatherlink.com 1.10,2013-04-04 05:46:00,
2013-04-03 23:01:00,61.1,26.0,30.04,SE,130,0.0,2.0,26,0.00,,,0.00,0,weatherlink.com 1.10,2013-04-04 06:01:00,
2013-04-03 23:31:00,59.3,27.0,30.05,SE,130,1.0,2.0,29,0.00,,,0.00,0,weatherlink.com 1.10,2013-04-04 06:31:00,
2013-04-03 23:46:00,59.4,26.0,30.05,SE,130,0.0,2.0,28,0.00,,,0.00,0,weatherlink.com 1.10,2013-04-04 06:46:00,